Thunder radar more information blitzortung!


Löydät sääaseman tiedot myös:

European Weather Network

Finland Weather Exchange

Weather Underground

AWEKAS



Weather Underground säähistoriasivu

Päivittäin yhteenveto Maaliskuu 5, 2017 Yksiköt:  Molemmat    Englantilaiset   Metriset
« Edellinen Päivä
Seuraava Päivä »
Päivittäin Viikoittain Kuukausittain Vuosittain Mukautettu
  Korkea: Matala: Keskiarvo:
Lämpötila: TemperatureC °F /  -17.8 °C -10.3 °F /  -23.5 °C -6.4 °F /  -21.3 °C
Kastepiste: DewpointC °F /  -17.8 °C -11.4 °F /  -24.1 °C -7.8 °F /  -22.1 °C
Kosteus: Humidity % 73 % 89 %
Tuulen nopeus: WindSpeedKMH mph /  0 km/h - 0 mph /  0 km/h
Tuulenpuuska: WindSpeedGustKMH mph /  0 km/h - -
Tuuli:- - WNW
Ilmanpaine: PressurehPa in /  0 hPa 1013.4 in /  34313.7 hPa -
Sade: 0.0 in /  0 mm    
Historical Graphs
 
 
Taulukkotiedot Maaliskuu 5, 2017
Aika Lämpötila Kastepiste Ilmanpaine Tuuli Tuulen nopeus Tuulenpuuska Kosteus Sademäärä (tunneittain)
TemperatureC °F /  -17.8 °C DewpointC °F /  -17.8 °C PressurehPa in /  0 hPa Calm     Humidity % HourlyPrecipMM in /  0 mm
00:00 -4.6 °F /  -20.3 °C -6.1 °F /  -21.2 °C 1013.4 in /  34313.7 hPa Calm     89 % 0.0 in /  0 mm
00:15 -4.8 °F /  -20.4 °C -6.3 °F /  -21.3 °C 1013.8 in /  34327.3 hPa Calm     89 % 0.0 in /  0 mm
00:30 -4.8 °F /  -20.4 °C -6.2 °F /  -21.2 °C 1013.8 in /  34327.3 hPa Calm   3.2 mph /  5.1 km/h 90 % 0.0 in /  0 mm
00:45 -4.8 °F /  -20.4 °C -6.2 °F /  -21.2 °C 1013.8 in /  34327.3 hPa Calm   4.8 mph /  7.7 km/h 90 % 0.0 in /  0 mm
01:00 -4.7 °F /  -20.4 °C -6.1 °F /  -21.2 °C 1014.1 in /  34337.4 hPa Calm   1.6 mph /  2.6 km/h 90 % 0.0 in /  0 mm
01:15 -4.7 °F /  -20.4 °C -6.3 °F /  -21.3 °C 1014.1 in /  34337.4 hPa Calm   3.2 mph /  5.1 km/h 89 % 0.0 in /  0 mm
01:30 -4.8 °F /  -20.4 °C -6.3 °F /  -21.3 °C 1014.1 in /  34337.4 hPa Calm   1.6 mph /  2.6 km/h 89 % 0.0 in /  0 mm
01:45 -5.1 °F /  -20.6 °C -6.6 °F /  -21.4 °C 1014.1 in /  34337.4 hPa Calm     89 % 0.0 in /  0 mm
02:00 -5.5 °F /  -20.8 °C -7.0 °F /  -21.7 °C 1014.1 in /  34337.4 hPa Calm   1.6 mph /  2.6 km/h 89 % 0.0 in /  0 mm
02:15 -6.2 °F /  -21.2 °C -7.7 °F /  -22.1 °C 1014.1 in /  34337.4 hPa Calm     89 % 0.0 in /  0 mm
02:30 -6.5 °F /  -21.4 °C -7.7 °F /  -22.1 °C 1014.1 in /  34337.4 hPa NW 1.6 mph /  2.6 km/h 4.8 mph /  7.7 km/h 91 % 0.0 in /  0 mm
02:45 -6.9 °F /  -21.6 °C -8.1 °F /  -22.3 °C 1014.1 in /  34337.4 hPa Calm   4.8 mph /  7.7 km/h 91 % 0.0 in /  0 mm
03:00 -7.3 °F /  -21.8 °C -8.4 °F /  -22.4 °C 1014.1 in /  34337.4 hPa Calm     92 % 0.0 in /  0 mm
03:15 -7.6 °F /  -22 °C -8.6 °F /  -22.6 °C 1014.4 in /  34347.6 hPa Calm     92 % 0.0 in /  0 mm
03:30 -7.9 °F /  -22.2 °C -9.0 °F /  -22.8 °C 1014.4 in /  34347.6 hPa Calm     92 % 0.0 in /  0 mm
03:45 -8.4 °F /  -22.4 °C -9.5 °F /  -23.1 °C 1014.4 in /  34347.6 hPa Calm     92 % 0.0 in /  0 mm
04:00 -8.6 °F /  -22.6 °C -9.7 °F /  -23.2 °C 1014.8 in /  34361.1 hPa Calm     92 % 0.0 in /  0 mm
04:15 -8.8 °F /  -22.7 °C -9.8 °F /  -23.2 °C 1014.8 in /  34361.1 hPa Calm     92 % 0.0 in /  0 mm
04:30 -8.8 °F /  -22.7 °C -9.8 °F /  -23.2 °C 1014.8 in /  34361.1 hPa Calm     93 % 0.0 in /  0 mm
04:45 -9.0 °F /  -22.8 °C -9.9 °F /  -23.3 °C 1014.8 in /  34361.1 hPa Calm     93 % 0.0 in /  0 mm
05:00 -9.2 °F /  -22.9 °C -10.1 °F /  -23.4 °C 1014.8 in /  34361.1 hPa Calm     93 % 0.0 in /  0 mm
05:15 -9.3 °F /  -22.9 °C -10.4 °F /  -23.6 °C 1014.8 in /  34361.1 hPa Calm     92 % 0.0 in /  0 mm
05:30 -9.3 °F /  -22.9 °C -10.2 °F /  -23.4 °C 1014.8 in /  34361.1 hPa Calm     93 % 0.0 in /  0 mm
05:45 -9.4 °F /  -23 °C -10.4 °F /  -23.6 °C 1015.1 in /  34371.3 hPa Calm     93 % 0.0 in /  0 mm
06:00 -9.6 °F /  -23.1 °C -10.5 °F /  -23.6 °C 1015.1 in /  34371.3 hPa Calm     93 % 0.0 in /  0 mm
06:15 -9.5 °F /  -23.1 °C -10.4 °F /  -23.6 °C 1015.1 in /  34371.3 hPa Calm   1.6 mph /  2.6 km/h 93 % 0.0 in /  0 mm
06:30 -9.3 °F /  -22.9 °C -10.2 °F /  -23.4 °C 1015.1 in /  34371.3 hPa Calm     93 % 0.0 in /  0 mm
06:45 -8.9 °F /  -22.7 °C -9.7 °F /  -23.2 °C 1015.1 in /  34371.3 hPa Calm     94 % 0.0 in /  0 mm
07:00 -8.6 °F /  -22.6 °C -9.4 °F /  -23 °C 1015.1 in /  34371.3 hPa Calm     94 % 0.0 in /  0 mm
07:15 -8.4 °F /  -22.4 °C -9.2 °F /  -22.9 °C 1015.5 in /  34384.8 hPa Calm     94 % 0.0 in /  0 mm
07:30 -8.2 °F /  -22.3 °C -9.0 °F /  -22.8 °C 1015.5 in /  34384.8 hPa Calm     94 % 0.0 in /  0 mm
07:45 -7.9 °F /  -22.2 °C -8.7 °F /  -22.6 °C 1015.8 in /  34395 hPa Calm     94 % 0.0 in /  0 mm
08:00 -7.8 °F /  -22.1 °C -8.4 °F /  -22.4 °C 1015.8 in /  34395 hPa Calm   3.2 mph /  5.1 km/h 95 % 0.0 in /  0 mm
08:15 -7.6 °F /  -22 °C -8.3 °F /  -22.4 °C 1016.1 in /  34405.1 hPa Calm   1.6 mph /  2.6 km/h 95 % 0.0 in /  0 mm
08:30 -7.6 °F /  -22 °C -8.2 °F /  -22.3 °C 1016.1 in /  34405.1 hPa Calm     95 % 0.0 in /  0 mm
08:45 -7.6 °F /  -22 °C -8.4 °F /  -22.4 °C 1015.8 in /  34395 hPa Calm   1.6 mph /  2.6 km/h 94 % 0.0 in /  0 mm
09:00 -7.7 °F /  -22.1 °C -8.5 °F /  -22.5 °C 1015.8 in /  34395 hPa Calm     94 % 0.0 in /  0 mm
09:15 -7.6 °F /  -22 °C -8.4 °F /  -22.4 °C 1016.1 in /  34405.1 hPa Calm   1.6 mph /  2.6 km/h 94 % 0.0 in /  0 mm
09:30 -7.6 °F /  -22 °C -8.4 °F /  -22.4 °C 1016.5 in /  34418.7 hPa Calm     94 % 0.0 in /  0 mm
09:45 -7.3 °F /  -21.8 °C -8.1 °F /  -22.3 °C 1016.5 in /  34418.7 hPa Calm     94 % 0.0 in /  0 mm
10:00 -7.2 °F /  -21.8 °C -8.0 °F /  -22.2 °C 1016.5 in /  34418.7 hPa Calm   3.2 mph /  5.1 km/h 94 % 0.0 in /  0 mm
10:15 -6.9 °F /  -21.6 °C -7.7 °F /  -22.1 °C 1016.8 in /  34428.8 hPa Calm     94 % 0.0 in /  0 mm
10:30 -6.8 °F /  -21.6 °C -7.6 °F /  -22 °C 1016.8 in /  34428.8 hPa Calm     94 % 0.0 in /  0 mm
10:45 -6.8 °F /  -21.6 °C -7.6 °F /  -22 °C 1016.8 in /  34428.8 hPa Calm   1.6 mph /  2.6 km/h 94 % 0.0 in /  0 mm
11:00 -6.7 °F /  -21.5 °C -7.5 °F /  -21.9 °C 1017.2 in /  34442.4 hPa Calm     94 % 0.0 in /  0 mm
11:15 -6.7 °F /  -21.5 °C -7.5 °F /  -21.9 °C 1017.2 in /  34442.4 hPa Calm   3.2 mph /  5.1 km/h 94 % 0.0 in /  0 mm
11:30 -6.7 °F /  -21.5 °C -7.5 °F /  -21.9 °C 1017.2 in /  34442.4 hPa Calm   1.6 mph /  2.6 km/h 94 % 0.0 in /  0 mm
11:45 -6.6 °F /  -21.4 °C -7.4 °F /  -21.9 °C 1017.2 in /  34442.4 hPa Calm     94 % 0.0 in /  0 mm
12:00 -6.1 °F /  -21.2 °C -6.9 °F /  -21.6 °C 1017.5 in /  34452.6 hPa WSW 1.6 mph /  2.6 km/h 6.4 mph /  10.3 km/h 94 % 0.0 in /  0 mm
12:15 -5.9 °F /  -21.1 °C -6.8 °F /  -21.6 °C 1017.5 in /  34452.6 hPa Calm     93 % 0.0 in /  0 mm
12:30 -5.6 °F /  -20.9 °C -6.6 °F /  -21.4 °C 1017.2 in /  34442.4 hPa Calm   1.6 mph /  2.6 km/h 93 % 0.0 in /  0 mm
12:45 -5.3 °F /  -20.7 °C -6.3 °F /  -21.3 °C 1017.2 in /  34442.4 hPa Calm     93 % 0.0 in /  0 mm
13:00 -5.0 °F /  -20.6 °C -6.0 °F /  -21.1 °C 1017.2 in /  34442.4 hPa Calm     93 % 0.0 in /  0 mm
13:15 -4.7 °F /  -20.4 °C -5.7 °F /  -20.9 °C 1017.2 in /  34442.4 hPa Calm   1.6 mph /  2.6 km/h 93 % 0.0 in /  0 mm
13:30 -4.3 °F /  -20.2 °C -5.4 °F /  -20.8 °C 1017.2 in /  34442.4 hPa Calm     92 % 0.0 in /  0 mm
13:45 -4.0 °F /  -20 °C -5.1 °F /  -20.6 °C 1017.2 in /  34442.4 hPa Calm   1.6 mph /  2.6 km/h 92 % 0.0 in /  0 mm
14:00 -3.7 °F /  -19.8 °C -4.8 °F /  -20.4 °C 1017.2 in /  34442.4 hPa Calm   1.6 mph /  2.6 km/h 92 % 0.0 in /  0 mm
14:15 -3.5 °F /  -19.7 °C -4.9 °F /  -20.5 °C 1017.2 in /  34442.4 hPa Calm   3.2 mph /  5.1 km/h 90 % 0.0 in /  0 mm
14:30 -3.1 °F /  -19.5 °C -4.6 °F /  -20.3 °C 1017.2 in /  34442.4 hPa Calm   3.2 mph /  5.1 km/h 89 % 0.0 in /  0 mm
14:45 -2.3 °F /  -19.1 °C -4.9 °F /  -20.5 °C 1016.8 in /  34428.8 hPa Calm   4.8 mph /  7.7 km/h 82 % 0.0 in /  0 mm
15:00 -1.9 °F /  -18.8 °C -5.1 °F /  -20.6 °C 1016.8 in /  34428.8 hPa Calm   4.8 mph /  7.7 km/h 79 % 0.0 in /  0 mm
15:15 -1.8 °F /  -18.8 °C -5.3 °F /  -20.7 °C 1016.8 in /  34428.8 hPa Calm   3.2 mph /  5.1 km/h 77 % 0.0 in /  0 mm
15:30 -1.7 °F /  -18.7 °C -5.5 °F /  -20.8 °C 1016.8 in /  34428.8 hPa Calm   3.2 mph /  5.1 km/h 75 % 0.0 in /  0 mm
15:45 -1.6 °F /  -18.7 °C -5.6 °F /  -20.9 °C 1016.8 in /  34428.8 hPa Calm   3.2 mph /  5.1 km/h 74 % 0.0 in /  0 mm
16:00 -1.8 °F /  -18.8 °C -6.0 °F /  -21.1 °C 1016.8 in /  34428.8 hPa Calm   3.2 mph /  5.1 km/h 73 % 0.0 in /  0 mm
16:15 -2.1 °F /  -18.9 °C -6.1 °F /  -21.2 °C 1016.8 in /  34428.8 hPa Calm   1.6 mph /  2.6 km/h 74 % 0.0 in /  0 mm
16:30 -2.4 °F /  -19.1 °C -6.1 °F /  -21.2 °C 1016.5 in /  34418.7 hPa Calm   1.6 mph /  2.6 km/h 76 % 0.0 in /  0 mm
16:45 -2.7 °F /  -19.3 °C -6.4 °F /  -21.3 °C 1016.8 in /  34428.8 hPa Calm   6.4 mph /  10.3 km/h 76 % 0.0 in /  0 mm
17:00 -3.1 °F /  -19.5 °C -6.4 °F /  -21.3 °C 1016.8 in /  34428.8 hPa Calm   3.2 mph /  5.1 km/h 78 % 0.0 in /  0 mm
17:15 -3.4 °F /  -19.7 °C -6.2 °F /  -21.2 °C 1016.8 in /  34428.8 hPa Calm   1.6 mph /  2.6 km/h 81 % 0.0 in /  0 mm
17:30 -3.8 °F /  -19.9 °C -6.3 °F /  -21.3 °C 1016.8 in /  34428.8 hPa Calm     83 % 0.0 in /  0 mm
17:45 -4.2 °F /  -20.1 °C -6.6 °F /  -21.4 °C 1017.2 in /  34442.4 hPa Calm     83 % 0.0 in /  0 mm
18:00 -4.4 °F /  -20.2 °C -6.9 °F /  -21.6 °C 1017.2 in /  34442.4 hPa Calm     83 % 0.0 in /  0 mm
18:15 -4.6 °F /  -20.3 °C -6.9 °F /  -21.6 °C 1017.5 in /  34452.6 hPa Calm     84 % 0.0 in /  0 mm
18:30 -5.2 °F /  -20.7 °C -7.2 °F /  -21.8 °C 1017.5 in /  34452.6 hPa Calm     86 % 0.0 in /  0 mm
18:45 -5.6 °F /  -20.9 °C -7.4 °F /  -21.9 °C 1017.8 in /  34462.7 hPa Calm     87 % 0.0 in /  0 mm
19:00 -5.9 °F /  -21.1 °C -7.6 °F /  -22 °C 1017.8 in /  34462.7 hPa Calm     88 % 0.0 in /  0 mm
19:15 -6.2 °F /  -21.2 °C -7.7 °F /  -22.1 °C 1017.8 in /  34462.7 hPa Calm     89 % 0.0 in /  0 mm
19:30 -6.4 °F /  -21.3 °C -7.8 °F /  -22.1 °C 1018.2 in /  34476.3 hPa Calm   1.6 mph /  2.6 km/h 90 % 0.0 in /  0 mm
19:45 -6.3 °F /  -21.3 °C -7.6 °F /  -22 °C 1018.2 in /  34476.3 hPa Calm   1.6 mph /  2.6 km/h 91 % 0.0 in /  0 mm
20:00 -6.4 °F /  -21.3 °C -7.8 °F /  -22.1 °C 1018.2 in /  34476.3 hPa Calm   1.6 mph /  2.6 km/h 90 % 0.0 in /  0 mm
20:15 -6.7 °F /  -21.5 °C -8.0 °F /  -22.2 °C 1018.5 in /  34486.4 hPa Calm     90 % 0.0 in /  0 mm
20:30 -7.0 °F /  -21.7 °C -8.4 °F /  -22.4 °C 1018.5 in /  34486.4 hPa Calm     90 % 0.0 in /  0 mm
20:45 -7.7 °F /  -22.1 °C -9.0 °F /  -22.8 °C 1018.5 in /  34486.4 hPa Calm     90 % 0.0 in /  0 mm
21:00 -8.0 °F /  -22.2 °C -9.2 °F /  -22.9 °C 1018.5 in /  34486.4 hPa Calm     91 % 0.0 in /  0 mm
21:15 -8.3 °F /  -22.4 °C -9.5 °F /  -23.1 °C 1018.8 in /  34496.6 hPa Calm     91 % 0.0 in /  0 mm
21:30 -8.7 °F /  -22.6 °C -9.9 °F /  -23.3 °C 1018.8 in /  34496.6 hPa Calm     91 % 0.0 in /  0 mm
21:45 -9.1 °F /  -22.8 °C -10.3 °F /  -23.5 °C 1018.8 in /  34496.6 hPa Calm     91 % 0.0 in /  0 mm
22:00 -9.4 °F /  -23 °C -10.4 °F /  -23.6 °C 1019.2 in /  34510.1 hPa Calm     92 % 0.0 in /  0 mm
22:15 -9.3 °F /  -22.9 °C -10.3 °F /  -23.5 °C 1019.2 in /  34510.1 hPa Calm     93 % 0.0 in /  0 mm
22:30 -9.3 °F /  -22.9 °C -10.4 °F /  -23.6 °C 1019.2 in /  34510.1 hPa Calm     92 % 0.0 in /  0 mm
22:45 -9.3 °F /  -22.9 °C -10.3 °F /  -23.5 °C 1019.5 in /  34520.3 hPa Calm     93 % 0.0 in /  0 mm
23:00 -9.6 °F /  -23.1 °C -10.6 °F /  -23.7 °C 1019.5 in /  34520.3 hPa Calm     92 % 0.0 in /  0 mm
23:15 -9.8 °F /  -23.2 °C -10.8 °F /  -23.8 °C 1019.9 in /  34533.8 hPa Calm     92 % 0.0 in /  0 mm
23:30 -10.2 °F /  -23.4 °C -11.4 °F /  -24.1 °C 1019.9 in /  34533.8 hPa Calm     91 % 0.0 in /  0 mm
23:45 -10.3 °F /  -23.5 °C -11.3 °F /  -24.1 °C 1019.9 in /  34533.8 hPa Calm     92 % 0.0 in /  0 mm
Esan sääasema
Terveisin Weather Underground - 2.75 mb

Alkuperäinen skripti  Jim McMurry - jmcmurry@mwt.net Sovitettu myös templatelle  Wim van der Kuil - Leuven-Template.eu

Laitteet joita käytämme:

Sääasema
Davis VP2

Sääasemaohjelma
Cumulus

Sääaseman tietokone
Asus EeePC

Palveluntarjoaja
Suncomet

Davis VP2

Cumulus

Asus EeePC

Suncomet